Impacts TAF Board
For situational awareness. Not to be used for flight planning purposes.
IDs:

KINW - Winslow/Lindberg Rgn, AZ, US

Issued at 1715 UTC 21 Sep 2021
Updated at 2102 UTC 21 Sep 2021
Potential Impact None Slight Moderate High
Time<<22/10Z 22/11Z 22/12Z 22/13Z 22/14Z 22/15Z 22/16Z 22/17Z 22/18Z 22/19Z 22/20Z 22/21Z 22/22Z>>
Type PRVL PRVL
VIS >6 >6
CIG -- --
Cover SKC SKC
FltCat VFR VFR
WX -- --
WDir VRB VRB
WSpd 6 6
WGst -- --
Raw TAF
KINW 211715Z 2117/2212 VRB06KT P6SM SKC

METAR Board
Radar Display
Forecast Discussion
For situational awareness. Not to be used for flight planning purposes.